Airfield :







YOU CAN JOIN US ON...

 
LOGIN :

Register | Disclaimer

   EN    FR    IT 

 









Legend :    VFR   Marginal VFR   IFR   Intensive IFR   Very Intensive IFR
Visi :
Ceiling :
>= 8 km
>= 3000ft
5 to 8 km
1000 to 3000 ft
1500m to 5 km
500 to 1000 ft
800 to 1500m
200 to 500 ft
< 800m
< 200 ft
Symbols :   Thunderstorms  Fog  Heavy snow  Heavy precipitations  Wind > 20 kt






- Airport Elevation : 20 ft
- IATA code : BON


TNCB - Flamingo

CURRENT METAR :
  • 232055Z 08012KT 050V120 9999 FEW025 29/22 Q1011

EXPIRED METARs :
  • 231955Z 09013KT 050V130 9999 SCT024 30/22 Q1011
  • 231855Z 09012KT 050V130 9999 SCT027 SCT030 30/22 Q1012
  • 231755Z 12010KT 060V170 9999 FEW027 31/21 Q1013
  • 231655Z 11009KT 060V160 9999 SCT026 31/20 Q1013

TAF TAF TNCB
Valid from the 23 at 18:00 until the 25 at 00:00 UTC


231712Z 2318/2424 09010KT 9999 SCT018
TNCF FIR / North America



MET'MAP, your aeronautical weather chart ! - Copyright ORBIFLY December 2007 - Disclaimer

ORBIFLY MET'MAP TEAM :

Programming & Development : Alexandra Zaïnal
Original concept : Baudouin d'Aumeries
Technical & hardware support : Manuel Goepfert
Assistance : Marc-Olivier Méhu




SOURCES & CREDITS :

   NOAA